sensor_id;sensor_type;location;lat;lon;timestamp;temperature;humidity
12434;DHT22;6281;49.038;8.372;2023-04-01T00:01:10;9.90;99.90
12434;DHT22;6281;49.038;8.372;2023-04-01T00:03:40;9.90;99.90
12434;DHT22;6281;49.038;8.372;2023-04-01T00:06:08;9.90;99.90
12434;DHT22;6281;49.038;8.372;2023-04-01T00:08:38;9.90;99.90
12434;DHT22;6281;49.038;8.372;2023-04-01T00:11:05;9.90;99.90
12434;DHT22;6281;49.038;8.372;2023-04-01T00:13:32;9.90;99.90
12434;DHT22;6281;49.038;8.372;2023-04-01T00:15:59;9.90;99.90
12434;DHT22;6281;49.038;8.372;2023-04-01T00:18:27;9.90;99.90
12434;DHT22;6281;49.038;8.372;2023-04-01T00:20:55;9.90;99.90
12434;DHT22;6281;49.038;8.372;2023-04-01T00:23:22;9.90;99.90
12434;DHT22;6281;49.038;8.372;2023-04-01T00:25:48;9.80;99.90
12434;DHT22;6281;49.038;8.372;2023-04-01T00:28:16;9.90;99.90
12434;DHT22;6281;49.038;8.372;2023-04-01T00:30:43;9.80;99.90
12434;DHT22;6281;49.038;8.372;2023-04-01T00:33:10;9.90;99.90
12434;DHT22;6281;49.038;8.372;2023-04-01T00:35:37;9.90;99.90
12434;DHT22;6281;49.038;8.372;2023-04-01T00:38:05;9.90;99.90
12434;DHT22;6281;49.038;8.372;2023-04-01T00:40:34;9.90;99.90
12434;DHT22;6281;49.038;8.372;2023-04-01T00:43:03;9.80;99.90
12434;DHT22;6281;49.038;8.372;2023-04-01T00:45:33;9.90;99.90
12434;DHT22;6281;49.038;8.372;2023-04-01T00:48:03;9.90;99.90
12434;DHT22;6281;49.038;8.372;2023-04-01T00:50:32;9.90;99.90
12434;DHT22;6281;49.038;8.372;2023-04-01T00:53:01;9.90;99.90
12434;DHT22;6281;49.038;8.372;2023-04-01T00:55:33;9.90;99.90
12434;DHT22;6281;49.038;8.372;2023-04-01T00:58:03;9.90;99.90
12434;DHT22;6281;49.038;8.372;2023-04-01T01:00:32;9.90;99.90
12434;DHT22;6281;49.038;8.372;2023-04-01T01:02:59;9.90;99.90
12434;DHT22;6281;49.038;8.372;2023-04-01T01:05:34;10.00;99.90
12434;DHT22;6281;49.038;8.372;2023-04-01T01:08:12;10.00;99.90
12434;DHT22;6281;49.038;8.372;2023-04-01T01:10:42;10.00;99.90
12434;DHT22;6281;49.038;8.372;2023-04-01T01:13:17;10.00;99.90
12434;DHT22;6281;49.038;8.372;2023-04-01T01:15:49;10.00;99.90
12434;DHT22;6281;49.038;8.372;2023-04-01T01:18:19;10.00;99.90
12434;DHT22;6281;49.038;8.372;2023-04-01T01:21:17;10.00;99.90
12434;DHT22;6281;49.038;8.372;2023-04-01T01:24:22;10.10;99.90
12434;DHT22;6281;49.038;8.372;2023-04-01T01:27:02;10.10;99.90
12434;DHT22;6281;49.038;8.372;2023-04-01T01:29:57;9.90;99.90
12434;DHT22;6281;49.038;8.372;2023-04-01T01:35:36;9.80;99.90
12434;DHT22;6281;49.038;8.372;2023-04-01T01:38:07;9.80;99.90
12434;DHT22;6281;49.038;8.372;2023-04-01T01:40:36;9.80;99.90
12434;DHT22;6281;49.038;8.372;2023-04-01T01:43:08;9.90;99.90
12434;DHT22;6281;49.038;8.372;2023-04-01T01:45:40;9.60;99.90
12434;DHT22;6281;49.038;8.372;2023-04-01T01:48:10;9.40;99.90
12434;DHT22;6281;49.038;8.372;2023-04-01T01:50:40;9.50;99.90
12434;DHT22;6281;49.038;8.372;2023-04-01T01:53:09;9.50;99.90
12434;DHT22;6281;49.038;8.372;2023-04-01T01:55:38;9.60;99.90
12434;DHT22;6281;49.038;8.372;2023-04-01T01:58:09;9.60;99.90
12434;DHT22;6281;49.038;8.372;2023-04-01T02:00:39;9.70;99.90
12434;DHT22;6281;49.038;8.372;2023-04-01T02:03:08;9.80;99.90
12434;DHT22;6281;49.038;8.372;2023-04-01T02:05:36;9.80;99.90
12434;DHT22;6281;49.038;8.372;2023-04-01T02:08:07;9.80;99.90
12434;DHT22;6281;49.038;8.372;2023-04-01T02:10:37;9.80;99.90
12434;DHT22;6281;49.038;8.372;2023-04-01T02:13:10;9.90;99.90
12434;DHT22;6281;49.038;8.372;2023-04-01T02:15:42;9.70;99.90
12434;DHT22;6281;49.038;8.372;2023-04-01T02:18:13;9.80;99.90
12434;DHT22;6281;49.038;8.372;2023-04-01T02:20:41;9.70;99.90
12434;DHT22;6281;49.038;8.372;2023-04-01T02:23:10;9.70;99.90
12434;DHT22;6281;49.038;8.372;2023-04-01T02:25:38;9.70;99.90
12434;DHT22;6281;49.038;8.372;2023-04-01T02:28:07;9.60;99.90
12434;DHT22;6281;49.038;8.372;2023-04-01T02:30:35;9.60;99.90
12434;DHT22;6281;49.038;8.372;2023-04-01T02:33:05;9.50;99.90
12434;DHT22;6281;49.038;8.372;2023-04-01T02:35:33;9.60;99.90
12434;DHT22;6281;49.038;8.372;2023-04-01T02:38:01;9.50;99.90
12434;DHT22;6281;49.038;8.372;2023-04-01T02:40:29;9.50;99.90
12434;DHT22;6281;49.038;8.372;2023-04-01T02:42:56;9.40;99.90
12434;DHT22;6281;49.038;8.372;2023-04-01T02:45:23;9.50;99.90
12434;DHT22;6281;49.038;8.372;2023-04-01T02:47:49;9.40;99.90
12434;DHT22;6281;49.038;8.372;2023-04-01T02:50:16;9.20;99.90
12434;DHT22;6281;49.038;8.372;2023-04-01T02:52:43;9.20;99.90
12434;DHT22;6281;49.038;8.372;2023-04-01T02:55:10;9.40;99.90
12434;DHT22;6281;49.038;8.372;2023-04-01T02:57:38;9.30;99.90
12434;DHT22;6281;49.038;8.372;2023-04-01T03:00:06;9.30;99.90
12434;DHT22;6281;49.038;8.372;2023-04-01T03:02:37;9.40;99.90
12434;DHT22;6281;49.038;8.372;2023-04-01T03:05:05;9.30;99.90
12434;DHT22;6281;49.038;8.372;2023-04-01T03:07:32;9.30;99.90
12434;DHT22;6281;49.038;8.372;2023-04-01T03:09:59;9.40;99.90
12434;DHT22;6281;49.038;8.372;2023-04-01T03:12:26;9.50;99.90
12434;DHT22;6281;49.038;8.372;2023-04-01T03:14:54;9.40;99.90
12434;DHT22;6281;49.038;8.372;2023-04-01T03:17:20;9.50;99.90
12434;DHT22;6281;49.038;8.372;2023-04-01T03:19:47;9.50;99.90
12434;DHT22;6281;49.038;8.372;2023-04-01T03:22:14;9.50;99.90
12434;DHT22;6281;49.038;8.372;2023-04-01T03:24:41;9.50;99.90
12434;DHT22;6281;49.038;8.372;2023-04-01T03:27:07;9.50;99.90
12434;DHT22;6281;49.038;8.372;2023-04-01T03:29:34;9.50;99.90
12434;DHT22;6281;49.038;8.372;2023-04-01T03:32:02;9.50;99.90
12434;DHT22;6281;49.038;8.372;2023-04-01T03:34:29;9.50;99.90
12434;DHT22;6281;49.038;8.372;2023-04-01T03:36:56;9.50;99.90
12434;DHT22;6281;49.038;8.372;2023-04-01T03:39:23;9.50;99.90
12434;DHT22;6281;49.038;8.372;2023-04-01T03:41:50;9.50;99.90
12434;DHT22;6281;49.038;8.372;2023-04-01T03:44:17;9.50;99.90
12434;DHT22;6281;49.038;8.372;2023-04-01T03:46:44;9.50;99.90
12434;DHT22;6281;49.038;8.372;2023-04-01T03:49:12;9.50;99.90
12434;DHT22;6281;49.038;8.372;2023-04-01T03:51:40;9.50;99.90
12434;DHT22;6281;49.038;8.372;2023-04-01T03:54:08;9.60;99.90
12434;DHT22;6281;49.038;8.372;2023-04-01T03:56:35;9.50;99.90
12434;DHT22;6281;49.038;8.372;2023-04-01T03:59:03;9.50;99.90
12434;DHT22;6281;49.038;8.372;2023-04-01T04:01:30;9.60;99.90
12434;DHT22;6281;49.038;8.372;2023-04-01T04:03:57;9.60;99.90
12434;DHT22;6281;49.038;8.372;2023-04-01T04:06:26;9.60;99.90
12434;DHT22;6281;49.038;8.372;2023-04-01T04:08:53;9.60;99.90
12434;DHT22;6281;49.038;8.372;2023-04-01T04:11:21;9.60;99.90
12434;DHT22;6281;49.038;8.372;2023-04-01T04:13:48;9.60;99.90
12434;DHT22;6281;49.038;8.372;2023-04-01T04:16:16;9.60;99.90
12434;DHT22;6281;49.038;8.372;2023-04-01T04:18:43;9.70;99.90
12434;DHT22;6281;49.038;8.372;2023-04-01T04:21:12;9.60;99.90
12434;DHT22;6281;49.038;8.372;2023-04-01T04:23:41;9.60;99.90
12434;DHT22;6281;49.038;8.372;2023-04-01T04:26:10;9.70;99.90
12434;DHT22;6281;49.038;8.372;2023-04-01T04:28:37;9.70;99.90
12434;DHT22;6281;49.038;8.372;2023-04-01T04:31:04;9.70;99.90
12434;DHT22;6281;49.038;8.372;2023-04-01T04:33:32;9.70;99.90
12434;DHT22;6281;49.038;8.372;2023-04-01T04:35:59;9.70;99.90
12434;DHT22;6281;49.038;8.372;2023-04-01T04:38:26;9.70;99.90
12434;DHT22;6281;49.038;8.372;2023-04-01T04:40:55;9.70;99.90
12434;DHT22;6281;49.038;8.372;2023-04-01T04:43:22;9.70;99.90
12434;DHT22;6281;49.038;8.372;2023-04-01T04:45:48;9.70;99.90
12434;DHT22;6281;49.038;8.372;2023-04-01T04:48:16;9.70;99.90
12434;DHT22;6281;49.038;8.372;2023-04-01T04:50:46;9.80;99.90
12434;DHT22;6281;49.038;8.372;2023-04-01T04:53:14;9.70;99.90
12434;DHT22;6281;49.038;8.372;2023-04-01T04:55:43;9.70;99.90
12434;DHT22;6281;49.038;8.372;2023-04-01T04:58:11;9.80;99.90
12434;DHT22;6281;49.038;8.372;2023-04-01T05:00:38;9.80;99.90
12434;DHT22;6281;49.038;8.372;2023-04-01T05:03:06;9.70;99.90
12434;DHT22;6281;49.038;8.372;2023-04-01T05:05:33;9.80;99.90
12434;DHT22;6281;49.038;8.372;2023-04-01T05:08:00;9.80;99.90
12434;DHT22;6281;49.038;8.372;2023-04-01T05:10:27;9.80;99.90
12434;DHT22;6281;49.038;8.372;2023-04-01T05:12:55;9.80;99.90
12434;DHT22;6281;49.038;8.372;2023-04-01T05:15:23;9.80;99.90
12434;DHT22;6281;49.038;8.372;2023-04-01T05:17:50;9.80;99.90
12434;DHT22;6281;49.038;8.372;2023-04-01T05:20:17;9.80;99.90
12434;DHT22;6281;49.038;8.372;2023-04-01T05:22:44;9.80;99.90
12434;DHT22;6281;49.038;8.372;2023-04-01T05:25:10;9.70;99.90
12434;DHT22;6281;49.038;8.372;2023-04-01T05:27:37;9.70;99.90
12434;DHT22;6281;49.038;8.372;2023-04-01T05:30:05;9.60;99.90
12434;DHT22;6281;49.038;8.372;2023-04-01T05:32:33;9.50;99.90
12434;DHT22;6281;49.038;8.372;2023-04-01T05:35:00;9.60;99.90
12434;DHT22;6281;49.038;8.372;2023-04-01T05:37:27;9.40;99.90
12434;DHT22;6281;49.038;8.372;2023-04-01T05:39:54;9.40;99.90
12434;DHT22;6281;49.038;8.372;2023-04-01T05:42:20;9.50;99.90
12434;DHT22;6281;49.038;8.372;2023-04-01T05:44:47;9.40;99.90
12434;DHT22;6281;49.038;8.372;2023-04-01T05:47:14;9.30;99.90
12434;DHT22;6281;49.038;8.372;2023-04-01T05:49:42;9.30;99.90
12434;DHT22;6281;49.038;8.372;2023-04-01T05:52:09;9.20;99.90
12434;DHT22;6281;49.038;8.372;2023-04-01T05:54:35;9.10;99.90
12434;DHT22;6281;49.038;8.372;2023-04-01T05:57:02;9.20;99.90
12434;DHT22;6281;49.038;8.372;2023-04-01T05:59:29;9.00;99.90
12434;DHT22;6281;49.038;8.372;2023-04-01T06:01:57;9.00;99.90
12434;DHT22;6281;49.038;8.372;2023-04-01T06:04:24;9.00;99.90
12434;DHT22;6281;49.038;8.372;2023-04-01T06:06:52;9.10;99.90
12434;DHT22;6281;49.038;8.372;2023-04-01T06:09:38;8.90;99.90
12434;DHT22;6281;49.038;8.372;2023-04-01T06:12:20;8.90;99.90
12434;DHT22;6281;49.038;8.372;2023-04-01T06:14:54;9.00;99.90
12434;DHT22;6281;49.038;8.372;2023-04-01T06:17:31;8.90;99.90
12434;DHT22;6281;49.038;8.372;2023-04-01T06:20:12;9.00;99.90
12434;DHT22;6281;49.038;8.372;2023-04-01T06:23:01;8.80;99.90
12434;DHT22;6281;49.038;8.372;2023-04-01T06:25:46;8.90;99.90
12434;DHT22;6281;49.038;8.372;2023-04-01T06:28:52;8.80;99.90
12434;DHT22;6281;49.038;8.372;2023-04-01T06:31:38;8.90;99.90
12434;DHT22;6281;49.038;8.372;2023-04-01T06:34:32;8.90;99.90
12434;DHT22;6281;49.038;8.372;2023-04-01T06:37:16;9.00;99.90
12434;DHT22;6281;49.038;8.372;2023-04-01T06:40:12;8.90;99.90
12434;DHT22;6281;49.038;8.372;2023-04-01T06:43:06;9.00;99.90
12434;DHT22;6281;49.038;8.372;2023-04-01T06:45:41;8.90;99.90
12434;DHT22;6281;49.038;8.372;2023-04-01T06:48:30;8.90;99.90
12434;DHT22;6281;49.038;8.372;2023-04-01T06:51:07;8.70;99.90
12434;DHT22;6281;49.038;8.372;2023-04-01T06:53:44;8.70;99.90
12434;DHT22;6281;49.038;8.372;2023-04-01T06:56:16;8.70;99.90
12434;DHT22;6281;49.038;8.372;2023-04-01T06:58:46;8.80;99.90
12434;DHT22;6281;49.038;8.372;2023-04-01T07:01:20;8.70;99.90
12434;DHT22;6281;49.038;8.372;2023-04-01T07:03:51;8.80;99.90
12434;DHT22;6281;49.038;8.372;2023-04-01T07:06:25;8.80;99.90
12434;DHT22;6281;49.038;8.372;2023-04-01T07:08:54;8.80;99.90
12434;DHT22;6281;49.038;8.372;2023-04-01T07:11:26;8.80;99.90
12434;DHT22;6281;49.038;8.372;2023-04-01T07:13:59;8.70;99.90
12434;DHT22;6281;49.038;8.372;2023-04-01T07:16:30;8.70;99.90
12434;DHT22;6281;49.038;8.372;2023-04-01T07:19:02;8.70;99.90
12434;DHT22;6281;49.038;8.372;2023-04-01T07:21:33;9.00;99.90
12434;DHT22;6281;49.038;8.372;2023-04-01T07:24:05;8.70;99.90
12434;DHT22;6281;49.038;8.372;2023-04-01T07:26:34;8.80;99.90
12434;DHT22;6281;49.038;8.372;2023-04-01T07:29:01;8.60;99.90
12434;DHT22;6281;49.038;8.372;2023-04-01T07:31:48;8.70;99.90
12434;DHT22;6281;49.038;8.372;2023-04-01T07:34:21;8.50;99.90
12434;DHT22;6281;49.038;8.372;2023-04-01T07:36:54;8.40;99.90
12434;DHT22;6281;49.038;8.372;2023-04-01T07:39:34;8.40;99.90
12434;DHT22;6281;49.038;8.372;2023-04-01T07:42:10;8.30;99.90
12434;DHT22;6281;49.038;8.372;2023-04-01T07:44:45;8.20;99.90
12434;DHT22;6281;49.038;8.372;2023-04-01T07:50:17;8.30;99.90
12434;DHT22;6281;49.038;8.372;2023-04-01T07:52:52;8.30;99.90
12434;DHT22;6281;49.038;8.372;2023-04-01T07:55:25;8.50;99.90
12434;DHT22;6281;49.038;8.372;2023-04-01T07:58:02;8.50;99.90
12434;DHT22;6281;49.038;8.372;2023-04-01T08:00:37;8.60;99.90
12434;DHT22;6281;49.038;8.372;2023-04-01T08:03:31;8.60;99.90
12434;DHT22;6281;49.038;8.372;2023-04-01T08:06:03;8.60;99.90
12434;DHT22;6281;49.038;8.372;2023-04-01T08:08:39;8.60;99.90
12434;DHT22;6281;49.038;8.372;2023-04-01T08:11:22;8.70;99.90
12434;DHT22;6281;49.038;8.372;2023-04-01T08:13:59;8.70;99.90
12434;DHT22;6281;49.038;8.372;2023-04-01T08:16:35;8.70;99.90
12434;DHT22;6281;49.038;8.372;2023-04-01T08:19:10;8.90;99.90
12434;DHT22;6281;49.038;8.372;2023-04-01T08:21:43;8.90;99.90
12434;DHT22;6281;49.038;8.372;2023-04-01T08:24:26;9.00;99.90
12434;DHT22;6281;49.038;8.372;2023-04-01T08:26:56;9.00;99.90
12434;DHT22;6281;49.038;8.372;2023-04-01T08:29:30;8.90;99.90
12434;DHT22;6281;49.038;8.372;2023-04-01T08:32:05;9.00;99.90
12434;DHT22;6281;49.038;8.372;2023-04-01T08:34:36;9.00;99.90
12434;DHT22;6281;49.038;8.372;2023-04-01T08:37:07;9.10;99.90
12434;DHT22;6281;49.038;8.372;2023-04-01T08:39:38;9.10;99.90
12434;DHT22;6281;49.038;8.372;2023-04-01T08:42:30;9.10;99.90
12434;DHT22;6281;49.038;8.372;2023-04-01T08:45:25;9.20;99.90
12434;DHT22;6281;49.038;8.372;2023-04-01T08:48:20;9.20;99.90
12434;DHT22;6281;49.038;8.372;2023-04-01T08:54:04;9.20;99.90
12434;DHT22;6281;49.038;8.372;2023-04-01T08:56:40;9.30;99.90
12434;DHT22;6281;49.038;8.372;2023-04-01T08:59:29;9.20;99.90
12434;DHT22;6281;49.038;8.372;2023-04-01T09:02:19;9.30;99.90
12434;DHT22;6281;49.038;8.372;2023-04-01T09:05:16;9.40;99.90
12434;DHT22;6281;49.038;8.372;2023-04-01T09:07:51;9.40;99.90
12434;DHT22;6281;49.038;8.372;2023-04-01T09:13:49;9.20;99.90
12434;DHT22;6281;49.038;8.372;2023-04-01T09:16:36;9.20;99.90
12434;DHT22;6281;49.038;8.372;2023-04-01T09:19:21;9.00;99.90
12434;DHT22;6281;49.038;8.372;2023-04-01T09:22:08;8.90;99.90
12434;DHT22;6281;49.038;8.372;2023-04-01T09:25:12;8.80;99.90
12434;DHT22;6281;49.038;8.372;2023-04-01T09:27:45;8.90;99.90
12434;DHT22;6281;49.038;8.372;2023-04-01T09:30:31;9.00;99.90
12434;DHT22;6281;49.038;8.372;2023-04-01T09:33:25;8.90;99.90
12434;DHT22;6281;49.038;8.372;2023-04-01T09:36:10;9.10;99.90
12434;DHT22;6281;49.038;8.372;2023-04-01T09:38:54;9.10;99.90
12434;DHT22;6281;49.038;8.372;2023-04-01T09:41:29;9.10;99.90
12434;DHT22;6281;49.038;8.372;2023-04-01T09:44:01;9.20;99.90
12434;DHT22;6281;49.038;8.372;2023-04-01T09:46:48;9.30;99.90
12434;DHT22;6281;49.038;8.372;2023-04-01T09:49:50;9.20;99.90
12434;DHT22;6281;49.038;8.372;2023-04-01T09:52:31;9.30;99.90
12434;DHT22;6281;49.038;8.372;2023-04-01T09:55:19;9.30;99.90
12434;DHT22;6281;49.038;8.372;2023-04-01T09:58:32;9.30;99.90
12434;DHT22;6281;49.038;8.372;2023-04-01T10:04:32;9.30;99.90
12434;DHT22;6281;49.038;8.372;2023-04-01T10:07:22;9.30;99.90
12434;DHT22;6281;49.038;8.372;2023-04-01T10:10:23;9.10;99.90
12434;DHT22;6281;49.038;8.372;2023-04-01T10:16:08;9.30;99.90
12434;DHT22;6281;49.038;8.372;2023-04-01T10:19:10;9.20;99.90
12434;DHT22;6281;49.038;8.372;2023-04-01T10:22:05;9.30;99.90
12434;DHT22;6281;49.038;8.372;2023-04-01T10:27:55;9.00;99.90
12434;DHT22;6281;49.038;8.372;2023-04-01T10:34:05;9.20;99.90
12434;DHT22;6281;49.038;8.372;2023-04-01T10:36:52;9.10;99.90
12434;DHT22;6281;49.038;8.372;2023-04-01T10:45:47;9.00;99.90
12434;DHT22;6281;49.038;8.372;2023-04-01T10:51:20;9.00;99.90
12434;DHT22;6281;49.038;8.372;2023-04-01T10:54:19;9.20;99.90
12434;DHT22;6281;49.038;8.372;2023-04-01T10:56:55;9.20;99.90
12434;DHT22;6281;49.038;8.372;2023-04-01T11:02:59;9.30;99.90
12434;DHT22;6281;49.038;8.372;2023-04-01T11:05:55;9.40;99.90
12434;DHT22;6281;49.038;8.372;2023-04-01T11:15:25;9.40;99.90
12434;DHT22;6281;49.038;8.372;2023-04-01T11:21:49;9.40;99.90
12434;DHT22;6281;49.038;8.372;2023-04-01T11:24:42;9.40;99.90
12434;DHT22;6281;49.038;8.372;2023-04-01T11:27:28;9.40;99.90
12434;DHT22;6281;49.038;8.372;2023-04-01T11:30:09;9.40;99.90
12434;DHT22;6281;49.038;8.372;2023-04-01T11:32:46;9.30;99.90
12434;DHT22;6281;49.038;8.372;2023-04-01T11:38:35;9.20;99.90
12434;DHT22;6281;49.038;8.372;2023-04-01T11:41:18;9.20;99.90
12434;DHT22;6281;49.038;8.372;2023-04-01T11:44:07;9.20;99.90
12434;DHT22;6281;49.038;8.372;2023-04-01T11:46:44;9.10;99.90
12434;DHT22;6281;49.038;8.372;2023-04-01T11:49:25;9.30;99.90
12434;DHT22;6281;49.038;8.372;2023-04-01T11:52:09;9.40;99.90
12434;DHT22;6281;49.038;8.372;2023-04-01T11:54:56;9.30;99.90
12434;DHT22;6281;49.038;8.372;2023-04-01T11:57:46;9.20;99.90
12434;DHT22;6281;49.038;8.372;2023-04-01T12:00:32;9.10;99.90
12434;DHT22;6281;49.038;8.372;2023-04-01T12:03:16;9.20;99.90
12434;DHT22;6281;49.038;8.372;2023-04-01T12:05:51;9.10;99.90
12434;DHT22;6281;49.038;8.372;2023-04-01T12:08:36;9.30;99.90
12434;DHT22;6281;49.038;8.372;2023-04-01T12:11:32;9.30;99.90
12434;DHT22;6281;49.038;8.372;2023-04-01T12:14:05;9.20;99.90
12434;DHT22;6281;49.038;8.372;2023-04-01T12:16:47;9.20;99.90
12434;DHT22;6281;49.038;8.372;2023-04-01T12:19:23;9.20;99.90
12434;DHT22;6281;49.038;8.372;2023-04-01T12:24:47;9.20;99.90
12434;DHT22;6281;49.038;8.372;2023-04-01T12:27:29;9.20;99.90
12434;DHT22;6281;49.038;8.372;2023-04-01T12:30:22;9.20;99.90
12434;DHT22;6281;49.038;8.372;2023-04-01T12:33:04;8.90;99.90
12434;DHT22;6281;49.038;8.372;2023-04-01T12:35:47;9.00;99.90
12434;DHT22;6281;49.038;8.372;2023-04-01T12:38:28;9.20;99.90
12434;DHT22;6281;49.038;8.372;2023-04-01T12:41:11;9.30;99.90
12434;DHT22;6281;49.038;8.372;2023-04-01T12:44:02;9.30;99.90
12434;DHT22;6281;49.038;8.372;2023-04-01T12:46:39;9.40;99.90
12434;DHT22;6281;49.038;8.372;2023-04-01T12:49:33;9.50;99.90
12434;DHT22;6281;49.038;8.372;2023-04-01T12:52:09;9.50;99.90
12434;DHT22;6281;49.038;8.372;2023-04-01T12:58:10;9.40;99.90
12434;DHT22;6281;49.038;8.372;2023-04-01T13:03:59;9.50;99.90
12434;DHT22;6281;49.038;8.372;2023-04-01T13:06:46;9.50;99.90
12434;DHT22;6281;49.038;8.372;2023-04-01T13:09:24;9.50;99.90
12434;DHT22;6281;49.038;8.372;2023-04-01T13:12:06;9.60;99.90
12434;DHT22;6281;49.038;8.372;2023-04-01T13:14:50;9.60;99.90
12434;DHT22;6281;49.038;8.372;2023-04-01T13:17:30;9.70;99.90
12434;DHT22;6281;49.038;8.372;2023-04-01T13:20:03;9.70;99.90
12434;DHT22;6281;49.038;8.372;2023-04-01T13:22:45;9.80;99.90
12434;DHT22;6281;49.038;8.372;2023-04-01T13:25:22;9.80;99.90
12434;DHT22;6281;49.038;8.372;2023-04-01T13:27:58;9.80;99.90
12434;DHT22;6281;49.038;8.372;2023-04-01T13:30:33;9.80;99.90
12434;DHT22;6281;49.038;8.372;2023-04-01T13:33:17;9.80;99.90
12434;DHT22;6281;49.038;8.372;2023-04-01T13:35:55;9.70;99.90
12434;DHT22;6281;49.038;8.372;2023-04-01T13:38:49;9.70;99.90
12434;DHT22;6281;49.038;8.372;2023-04-01T13:41:29;9.70;99.90
12434;DHT22;6281;49.038;8.372;2023-04-01T13:44:02;9.70;99.90
12434;DHT22;6281;49.038;8.372;2023-04-01T13:49:43;9.60;99.90
12434;DHT22;6281;49.038;8.372;2023-04-01T13:52:32;9.70;99.90
12434;DHT22;6281;49.038;8.372;2023-04-01T13:55:24;9.60;99.90
12434;DHT22;6281;49.038;8.372;2023-04-01T13:58:19;9.50;99.90
12434;DHT22;6281;49.038;8.372;2023-04-01T14:00:55;9.50;99.90
12434;DHT22;6281;49.038;8.372;2023-04-01T14:03:32;9.40;99.90
12434;DHT22;6281;49.038;8.372;2023-04-01T14:06:09;9.50;99.90
12434;DHT22;6281;49.038;8.372;2023-04-01T14:09:11;9.50;99.90
12434;DHT22;6281;49.038;8.372;2023-04-01T14:11:50;9.50;99.90
12434;DHT22;6281;49.038;8.372;2023-04-01T14:14:28;9.60;99.90
12434;DHT22;6281;49.038;8.372;2023-04-01T14:17:17;9.50;99.90
12434;DHT22;6281;49.038;8.372;2023-04-01T14:23:30;9.50;99.90
12434;DHT22;6281;49.038;8.372;2023-04-01T14:26:11;9.50;99.90
12434;DHT22;6281;49.038;8.372;2023-04-01T14:28:43;9.40;99.90
12434;DHT22;6281;49.038;8.372;2023-04-01T14:31:34;9.40;99.90
12434;DHT22;6281;49.038;8.372;2023-04-01T14:34:15;9.50;99.90
12434;DHT22;6281;49.038;8.372;2023-04-01T14:36:55;9.50;99.90
12434;DHT22;6281;49.038;8.372;2023-04-01T14:39:51;9.50;99.90
12434;DHT22;6281;49.038;8.372;2023-04-01T14:42:41;9.50;99.90
12434;DHT22;6281;49.038;8.372;2023-04-01T14:45:34;9.60;99.90
12434;DHT22;6281;49.038;8.372;2023-04-01T14:48:15;9.40;99.90
12434;DHT22;6281;49.038;8.372;2023-04-01T14:50:46;9.50;99.90
12434;DHT22;6281;49.038;8.372;2023-04-01T14:53:26;9.40;99.90
12434;DHT22;6281;49.038;8.372;2023-04-01T14:55:57;9.50;99.90
12434;DHT22;6281;49.038;8.372;2023-04-01T14:58:25;9.50;99.90
12434;DHT22;6281;49.038;8.372;2023-04-01T15:01:06;9.60;99.90
12434;DHT22;6281;49.038;8.372;2023-04-01T15:03:39;9.60;99.90
12434;DHT22;6281;49.038;8.372;2023-04-01T15:06:32;9.50;99.90
12434;DHT22;6281;49.038;8.372;2023-04-01T15:09:04;9.50;99.90
12434;DHT22;6281;49.038;8.372;2023-04-01T15:11:48;9.50;99.90
12434;DHT22;6281;49.038;8.372;2023-04-01T15:14:38;9.40;99.90
12434;DHT22;6281;49.038;8.372;2023-04-01T15:17:32;9.50;99.90
12434;DHT22;6281;49.038;8.372;2023-04-01T15:23:02;9.70;99.90
12434;DHT22;6281;49.038;8.372;2023-04-01T15:25:43;9.70;99.90
12434;DHT22;6281;49.038;8.372;2023-04-01T15:28:21;9.80;99.90
12434;DHT22;6281;49.038;8.372;2023-04-01T15:30:54;9.90;99.90
12434;DHT22;6281;49.038;8.372;2023-04-01T15:33:47;10.00;99.90
12434;DHT22;6281;49.038;8.372;2023-04-01T15:36:28;9.90;99.90
12434;DHT22;6281;49.038;8.372;2023-04-01T15:39:03;9.90;99.90
12434;DHT22;6281;49.038;8.372;2023-04-01T15:41:42;9.90;99.90
12434;DHT22;6281;49.038;8.372;2023-04-01T15:44:34;9.90;99.90
12434;DHT22;6281;49.038;8.372;2023-04-01T15:47:08;9.80;99.90
12434;DHT22;6281;49.038;8.372;2023-04-01T15:49:51;9.80;99.90
12434;DHT22;6281;49.038;8.372;2023-04-01T15:52:23;9.90;99.90
12434;DHT22;6281;49.038;8.372;2023-04-01T15:55:13;9.80;99.90
12434;DHT22;6281;49.038;8.372;2023-04-01T15:57:51;9.80;99.90
12434;DHT22;6281;49.038;8.372;2023-04-01T16:00:27;9.80;99.90
12434;DHT22;6281;49.038;8.372;2023-04-01T16:03:18;9.80;99.90
12434;DHT22;6281;49.038;8.372;2023-04-01T16:05:59;9.80;99.90
12434;DHT22;6281;49.038;8.372;2023-04-01T16:09:07;9.70;99.90
12434;DHT22;6281;49.038;8.372;2023-04-01T16:11:42;9.80;99.90
12434;DHT22;6281;49.038;8.372;2023-04-01T16:14:22;9.70;99.90
12434;DHT22;6281;49.038;8.372;2023-04-01T16:17:05;9.90;99.90
12434;DHT22;6281;49.038;8.372;2023-04-01T16:19:48;9.90;99.90
12434;DHT22;6281;49.038;8.372;2023-04-01T16:22:21;9.90;99.90
12434;DHT22;6281;49.038;8.372;2023-04-01T16:24:55;10.00;99.90
12434;DHT22;6281;49.038;8.372;2023-04-01T16:27:30;9.90;99.90
12434;DHT22;6281;49.038;8.372;2023-04-01T16:30:33;10.00;99.90
12434;DHT22;6281;49.038;8.372;2023-04-01T16:33:05;10.00;99.90
12434;DHT22;6281;49.038;8.372;2023-04-01T16:35:42;10.00;99.90
12434;DHT22;6281;49.038;8.372;2023-04-01T16:38:18;10.00;99.90
12434;DHT22;6281;49.038;8.372;2023-04-01T16:40:52;10.10;99.90
12434;DHT22;6281;49.038;8.372;2023-04-01T16:43:26;10.10;99.90
12434;DHT22;6281;49.038;8.372;2023-04-01T16:46:12;10.10;99.90
12434;DHT22;6281;49.038;8.372;2023-04-01T16:48:59;10.10;99.90
12434;DHT22;6281;49.038;8.372;2023-04-01T16:51:34;10.00;99.90
12434;DHT22;6281;49.038;8.372;2023-04-01T16:54:08;10.00;99.90
12434;DHT22;6281;49.038;8.372;2023-04-01T16:56:42;10.10;99.90
12434;DHT22;6281;49.038;8.372;2023-04-01T16:59:17;10.20;99.90
12434;DHT22;6281;49.038;8.372;2023-04-01T17:01:51;10.10;99.90
12434;DHT22;6281;49.038;8.372;2023-04-01T17:04:26;10.10;99.90
12434;DHT22;6281;49.038;8.372;2023-04-01T17:07:01;10.10;99.90
12434;DHT22;6281;49.038;8.372;2023-04-01T17:09:47;10.10;99.90
12434;DHT22;6281;49.038;8.372;2023-04-01T17:12:24;10.00;99.90
12434;DHT22;6281;49.038;8.372;2023-04-01T17:14:59;9.90;99.90
12434;DHT22;6281;49.038;8.372;2023-04-01T17:17:34;10.00;99.90
12434;DHT22;6281;49.038;8.372;2023-04-01T17:20:14;10.00;99.90
12434;DHT22;6281;49.038;8.372;2023-04-01T17:22:49;10.00;99.90
12434;DHT22;6281;49.038;8.372;2023-04-01T17:25:37;10.00;99.90
12434;DHT22;6281;49.038;8.372;2023-04-01T17:28:13;10.00;99.90
12434;DHT22;6281;49.038;8.372;2023-04-01T17:30:46;10.00;99.90
12434;DHT22;6281;49.038;8.372;2023-04-01T17:33:36;9.90;99.90
12434;DHT22;6281;49.038;8.372;2023-04-01T17:36:18;9.90;99.90
12434;DHT22;6281;49.038;8.372;2023-04-01T17:39:01;9.90;99.90
12434;DHT22;6281;49.038;8.372;2023-04-01T17:41:42;10.00;99.90
12434;DHT22;6281;49.038;8.372;2023-04-01T17:44:18;10.00;99.90
12434;DHT22;6281;49.038;8.372;2023-04-01T17:47:02;9.90;99.90
12434;DHT22;6281;49.038;8.372;2023-04-01T17:49:35;9.90;99.90
12434;DHT22;6281;49.038;8.372;2023-04-01T17:52:13;9.90;99.90
12434;DHT22;6281;49.038;8.372;2023-04-01T17:54:49;9.80;99.90
12434;DHT22;6281;49.038;8.372;2023-04-01T17:57:39;9.80;99.90
12434;DHT22;6281;49.038;8.372;2023-04-01T18:00:22;9.80;99.90
12434;DHT22;6281;49.038;8.372;2023-04-01T18:03:00;9.80;99.90
12434;DHT22;6281;49.038;8.372;2023-04-01T18:05:37;9.70;99.90
12434;DHT22;6281;49.038;8.372;2023-04-01T18:08:16;9.60;99.90
12434;DHT22;6281;49.038;8.372;2023-04-01T18:10:55;9.70;99.90